sensor_id;sensor_type;location;lat;lon;timestamp;P1;durP1;ratioP1;P2;durP2;ratioP2
11054;SDS011;5580;50.106;8.702;2022-07-06T00:01:54;10.43;;;4.50;;
11054;SDS011;5580;50.106;8.702;2022-07-06T00:04:19;4.40;;;4.00;;
11054;SDS011;5580;50.106;8.702;2022-07-06T00:06:45;7.20;;;4.30;;
11054;SDS011;5580;50.106;8.702;2022-07-06T00:09:11;5.57;;;3.70;;
11054;SDS011;5580;50.106;8.702;2022-07-06T00:11:37;6.57;;;4.10;;
11054;SDS011;5580;50.106;8.702;2022-07-06T00:14:03;6.30;;;4.10;;
11054;SDS011;5580;50.106;8.702;2022-07-06T00:16:29;5.20;;;4.07;;
11054;SDS011;5580;50.106;8.702;2022-07-06T00:18:55;6.33;;;4.20;;
11054;SDS011;5580;50.106;8.702;2022-07-06T00:21:21;8.30;;;4.27;;
11054;SDS011;5580;50.106;8.702;2022-07-06T00:23:46;6.03;;;4.17;;
11054;SDS011;5580;50.106;8.702;2022-07-06T00:26:12;8.70;;;4.37;;
11054;SDS011;5580;50.106;8.702;2022-07-06T00:28:38;7.90;;;4.50;;
11054;SDS011;5580;50.106;8.702;2022-07-06T00:31:04;4.50;;;4.03;;
11054;SDS011;5580;50.106;8.702;2022-07-06T00:33:30;7.77;;;4.60;;
11054;SDS011;5580;50.106;8.702;2022-07-06T00:35:56;5.83;;;4.30;;
11054;SDS011;5580;50.106;8.702;2022-07-06T00:38:22;6.13;;;4.20;;
11054;SDS011;5580;50.106;8.702;2022-07-06T00:40:48;7.80;;;4.30;;
11054;SDS011;5580;50.106;8.702;2022-07-06T00:43:13;5.90;;;4.23;;
11054;SDS011;5580;50.106;8.702;2022-07-06T00:45:39;5.53;;;4.20;;
11054;SDS011;5580;50.106;8.702;2022-07-06T00:48:04;7.47;;;4.30;;
11054;SDS011;5580;50.106;8.702;2022-07-06T00:50:30;7.03;;;4.40;;
11054;SDS011;5580;50.106;8.702;2022-07-06T00:52:59;7.87;;;4.43;;
11054;SDS011;5580;50.106;8.702;2022-07-06T00:55:28;7.60;;;4.37;;
11054;SDS011;5580;50.106;8.702;2022-07-06T00:57:55;8.60;;;4.40;;
11054;SDS011;5580;50.106;8.702;2022-07-06T01:00:22;6.27;;;4.40;;
11054;SDS011;5580;50.106;8.702;2022-07-06T01:02:50;8.23;;;4.30;;
11054;SDS011;5580;50.106;8.702;2022-07-06T01:05:16;7.67;;;4.50;;
11054;SDS011;5580;50.106;8.702;2022-07-06T01:07:42;6.90;;;4.47;;
11054;SDS011;5580;50.106;8.702;2022-07-06T01:10:09;4.83;;;4.20;;
11054;SDS011;5580;50.106;8.702;2022-07-06T01:12:37;5.00;;;4.33;;
11054;SDS011;5580;50.106;8.702;2022-07-06T01:15:05;7.27;;;4.50;;
11054;SDS011;5580;50.106;8.702;2022-07-06T01:17:32;7.93;;;4.57;;
11054;SDS011;5580;50.106;8.702;2022-07-06T01:20:05;7.63;;;4.00;;
11054;SDS011;5580;50.106;8.702;2022-07-06T01:22:38;6.17;;;4.30;;
11054;SDS011;5580;50.106;8.702;2022-07-06T01:25:04;7.33;;;4.43;;
11054;SDS011;5580;50.106;8.702;2022-07-06T01:27:31;5.83;;;4.40;;
11054;SDS011;5580;50.106;8.702;2022-07-06T01:29:59;6.63;;;4.40;;
11054;SDS011;5580;50.106;8.702;2022-07-06T01:32:25;5.43;;;4.30;;
11054;SDS011;5580;50.106;8.702;2022-07-06T01:34:50;8.20;;;4.13;;
11054;SDS011;5580;50.106;8.702;2022-07-06T01:37:16;6.93;;;4.20;;
11054;SDS011;5580;50.106;8.702;2022-07-06T01:39:42;7.40;;;4.20;;
11054;SDS011;5580;50.106;8.702;2022-07-06T01:42:07;10.77;;;4.43;;
11054;SDS011;5580;50.106;8.702;2022-07-06T01:44:33;7.53;;;4.30;;
11054;SDS011;5580;50.106;8.702;2022-07-06T01:46:58;6.20;;;4.23;;
11054;SDS011;5580;50.106;8.702;2022-07-06T01:49:24;6.53;;;4.07;;
11054;SDS011;5580;50.106;8.702;2022-07-06T01:51:49;8.77;;;4.40;;
11054;SDS011;5580;50.106;8.702;2022-07-06T01:54:15;6.10;;;4.30;;
11054;SDS011;5580;50.106;8.702;2022-07-06T01:56:41;7.13;;;4.00;;
11054;SDS011;5580;50.106;8.702;2022-07-06T01:59:06;7.30;;;4.40;;
11054;SDS011;5580;50.106;8.702;2022-07-06T02:01:32;6.27;;;4.33;;
11054;SDS011;5580;50.106;8.702;2022-07-06T02:03:57;7.63;;;4.30;;
11054;SDS011;5580;50.106;8.702;2022-07-06T02:06:23;9.40;;;4.40;;
11054;SDS011;5580;50.106;8.702;2022-07-06T02:08:48;11.77;;;4.50;;
11054;SDS011;5580;50.106;8.702;2022-07-06T02:11:16;7.07;;;4.33;;
11054;SDS011;5580;50.106;8.702;2022-07-06T02:13:42;6.03;;;4.40;;
11054;SDS011;5580;50.106;8.702;2022-07-06T02:16:07;8.87;;;4.33;;
11054;SDS011;5580;50.106;8.702;2022-07-06T02:18:33;6.03;;;4.33;;
11054;SDS011;5580;50.106;8.702;2022-07-06T02:20:59;8.13;;;4.30;;
11054;SDS011;5580;50.106;8.702;2022-07-06T02:23:24;7.60;;;4.40;;
11054;SDS011;5580;50.106;8.702;2022-07-06T02:25:51;7.77;;;4.37;;
11054;SDS011;5580;50.106;8.702;2022-07-06T02:28:17;5.50;;;4.07;;
11054;SDS011;5580;50.106;8.702;2022-07-06T02:30:42;6.20;;;4.10;;
11054;SDS011;5580;50.106;8.702;2022-07-06T02:33:08;5.43;;;4.20;;
11054;SDS011;5580;50.106;8.702;2022-07-06T02:35:33;6.93;;;4.20;;
11054;SDS011;5580;50.106;8.702;2022-07-06T02:37:59;8.33;;;4.20;;
11054;SDS011;5580;50.106;8.702;2022-07-06T02:40:24;8.30;;;4.10;;
11054;SDS011;5580;50.106;8.702;2022-07-06T02:42:50;6.40;;;4.20;;
11054;SDS011;5580;50.106;8.702;2022-07-06T02:45:16;7.33;;;4.33;;
11054;SDS011;5580;50.106;8.702;2022-07-06T02:47:41;8.87;;;4.20;;
11054;SDS011;5580;50.106;8.702;2022-07-06T02:50:07;8.00;;;4.20;;
11054;SDS011;5580;50.106;8.702;2022-07-06T02:52:33;8.30;;;4.30;;
11054;SDS011;5580;50.106;8.702;2022-07-06T02:54:58;6.93;;;4.30;;
11054;SDS011;5580;50.106;8.702;2022-07-06T02:57:24;6.80;;;4.03;;
11054;SDS011;5580;50.106;8.702;2022-07-06T02:59:49;10.67;;;3.97;;
11054;SDS011;5580;50.106;8.702;2022-07-06T03:02:15;6.07;;;4.10;;
11054;SDS011;5580;50.106;8.702;2022-07-06T03:04:41;6.47;;;4.00;;
11054;SDS011;5580;50.106;8.702;2022-07-06T03:07:07;5.60;;;3.90;;
11054;SDS011;5580;50.106;8.702;2022-07-06T03:09:33;6.60;;;3.80;;
11054;SDS011;5580;50.106;8.702;2022-07-06T03:11:58;6.60;;;3.93;;
11054;SDS011;5580;50.106;8.702;2022-07-06T03:14:24;4.90;;;3.60;;
11054;SDS011;5580;50.106;8.702;2022-07-06T03:16:50;6.03;;;3.90;;
11054;SDS011;5580;50.106;8.702;2022-07-06T03:19:16;8.23;;;4.17;;
11054;SDS011;5580;50.106;8.702;2022-07-06T03:21:42;6.10;;;3.90;;
11054;SDS011;5580;50.106;8.702;2022-07-06T03:24:08;6.50;;;3.57;;
11054;SDS011;5580;50.106;8.702;2022-07-06T03:26:34;6.17;;;4.10;;
11054;SDS011;5580;50.106;8.702;2022-07-06T03:28:59;5.70;;;3.67;;
11054;SDS011;5580;50.106;8.702;2022-07-06T03:31:25;5.00;;;3.80;;
11054;SDS011;5580;50.106;8.702;2022-07-06T03:33:51;8.13;;;3.83;;
11054;SDS011;5580;50.106;8.702;2022-07-06T03:36:17;6.73;;;4.00;;
11054;SDS011;5580;50.106;8.702;2022-07-06T03:38:42;5.83;;;3.90;;
11054;SDS011;5580;50.106;8.702;2022-07-06T03:41:08;5.03;;;3.53;;
11054;SDS011;5580;50.106;8.702;2022-07-06T03:43:34;5.30;;;3.70;;
11054;SDS011;5580;50.106;8.702;2022-07-06T03:45:59;5.80;;;3.60;;
11054;SDS011;5580;50.106;8.702;2022-07-06T03:48:25;5.73;;;3.93;;
11054;SDS011;5580;50.106;8.702;2022-07-06T03:50:50;6.07;;;3.93;;
11054;SDS011;5580;50.106;8.702;2022-07-06T03:53:16;6.40;;;4.00;;
11054;SDS011;5580;50.106;8.702;2022-07-06T03:55:42;7.87;;;3.77;;
11054;SDS011;5580;50.106;8.702;2022-07-06T03:58:07;5.33;;;3.90;;
11054;SDS011;5580;50.106;8.702;2022-07-06T04:00:33;4.47;;;3.80;;
11054;SDS011;5580;50.106;8.702;2022-07-06T04:02:59;5.10;;;3.60;;
11054;SDS011;5580;50.106;8.702;2022-07-06T04:05:25;6.40;;;3.80;;
11054;SDS011;5580;50.106;8.702;2022-07-06T04:07:51;5.37;;;3.73;;
11054;SDS011;5580;50.106;8.702;2022-07-06T04:10:17;7.47;;;4.00;;
11054;SDS011;5580;50.106;8.702;2022-07-06T04:12:42;5.43;;;3.73;;
11054;SDS011;5580;50.106;8.702;2022-07-06T04:15:09;7.10;;;4.00;;
11054;SDS011;5580;50.106;8.702;2022-07-06T04:17:36;9.27;;;3.60;;
11054;SDS011;5580;50.106;8.702;2022-07-06T04:20:16;5.33;;;3.70;;
11054;SDS011;5580;50.106;8.702;2022-07-06T04:22:42;5.30;;;3.90;;
11054;SDS011;5580;50.106;8.702;2022-07-06T04:25:08;10.23;;;3.77;;
11054;SDS011;5580;50.106;8.702;2022-07-06T04:27:34;7.37;;;4.00;;
11054;SDS011;5580;50.106;8.702;2022-07-06T04:30:00;5.77;;;3.70;;
11054;SDS011;5580;50.106;8.702;2022-07-06T04:32:26;6.43;;;3.53;;
11054;SDS011;5580;50.106;8.702;2022-07-06T04:34:51;10.00;;;4.00;;
11054;SDS011;5580;50.106;8.702;2022-07-06T04:37:17;9.00;;;4.10;;
11054;SDS011;5580;50.106;8.702;2022-07-06T04:39:43;4.97;;;3.77;;
11054;SDS011;5580;50.106;8.702;2022-07-06T04:42:08;7.37;;;3.90;;
11054;SDS011;5580;50.106;8.702;2022-07-06T04:44:34;6.97;;;4.07;;
11054;SDS011;5580;50.106;8.702;2022-07-06T04:46:59;6.90;;;3.97;;
11054;SDS011;5580;50.106;8.702;2022-07-06T04:49:25;4.87;;;3.93;;
11054;SDS011;5580;50.106;8.702;2022-07-06T04:51:50;8.53;;;3.90;;
11054;SDS011;5580;50.106;8.702;2022-07-06T04:54:16;7.17;;;4.40;;
11054;SDS011;5580;50.106;8.702;2022-07-06T04:56:42;10.17;;;4.27;;
11054;SDS011;5580;50.106;8.702;2022-07-06T04:59:07;7.07;;;4.20;;
11054;SDS011;5580;50.106;8.702;2022-07-06T05:01:33;6.83;;;4.27;;
11054;SDS011;5580;50.106;8.702;2022-07-06T05:03:59;7.27;;;3.90;;
11054;SDS011;5580;50.106;8.702;2022-07-06T05:06:24;7.37;;;4.23;;
11054;SDS011;5580;50.106;8.702;2022-07-06T05:08:50;6.60;;;4.10;;
11054;SDS011;5580;50.106;8.702;2022-07-06T05:11:16;10.67;;;4.40;;
11054;SDS011;5580;50.106;8.702;2022-07-06T05:13:41;6.33;;;4.30;;
11054;SDS011;5580;50.106;8.702;2022-07-06T05:16:07;6.60;;;4.27;;
11054;SDS011;5580;50.106;8.702;2022-07-06T05:18:33;6.43;;;4.20;;
11054;SDS011;5580;50.106;8.702;2022-07-06T05:20:59;7.73;;;4.43;;
11054;SDS011;5580;50.106;8.702;2022-07-06T05:23:24;9.20;;;4.37;;
11054;SDS011;5580;50.106;8.702;2022-07-06T05:25:50;9.13;;;4.30;;
11054;SDS011;5580;50.106;8.702;2022-07-06T05:28:16;10.17;;;4.90;;
11054;SDS011;5580;50.106;8.702;2022-07-06T05:30:42;9.50;;;4.60;;
11054;SDS011;5580;50.106;8.702;2022-07-06T05:33:07;6.33;;;4.43;;
11054;SDS011;5580;50.106;8.702;2022-07-06T05:35:33;6.30;;;4.27;;
11054;SDS011;5580;50.106;8.702;2022-07-06T05:37:58;9.03;;;4.13;;
11054;SDS011;5580;50.106;8.702;2022-07-06T05:40:24;7.47;;;4.50;;
11054;SDS011;5580;50.106;8.702;2022-07-06T05:42:49;9.37;;;4.40;;
11054;SDS011;5580;50.106;8.702;2022-07-06T05:45:15;7.60;;;4.43;;
11054;SDS011;5580;50.106;8.702;2022-07-06T05:47:41;6.33;;;4.10;;
11054;SDS011;5580;50.106;8.702;2022-07-06T05:50:25;8.37;;;4.47;;
11054;SDS011;5580;50.106;8.702;2022-07-06T05:53:00;9.23;;;4.70;;
11054;SDS011;5580;50.106;8.702;2022-07-06T05:55:27;9.57;;;5.07;;
11054;SDS011;5580;50.106;8.702;2022-07-06T05:57:53;5.70;;;4.60;;
11054;SDS011;5580;50.106;8.702;2022-07-06T06:00:20;8.10;;;4.33;;
11054;SDS011;5580;50.106;8.702;2022-07-06T06:02:47;8.10;;;4.37;;
11054;SDS011;5580;50.106;8.702;2022-07-06T06:05:13;7.43;;;4.17;;
11054;SDS011;5580;50.106;8.702;2022-07-06T06:07:39;9.80;;;4.50;;
11054;SDS011;5580;50.106;8.702;2022-07-06T06:10:06;7.30;;;4.43;;
11054;SDS011;5580;50.106;8.702;2022-07-06T06:12:33;7.70;;;4.60;;
11054;SDS011;5580;50.106;8.702;2022-07-06T06:14:59;8.43;;;4.63;;
11054;SDS011;5580;50.106;8.702;2022-07-06T06:17:25;5.67;;;4.30;;
11054;SDS011;5580;50.106;8.702;2022-07-06T06:19:51;7.63;;;4.50;;
11054;SDS011;5580;50.106;8.702;2022-07-06T06:22:16;7.63;;;4.70;;
11054;SDS011;5580;50.106;8.702;2022-07-06T06:24:42;9.27;;;4.90;;
11054;SDS011;5580;50.106;8.702;2022-07-06T06:27:07;9.77;;;4.97;;
11054;SDS011;5580;50.106;8.702;2022-07-06T06:29:33;9.87;;;4.83;;
11054;SDS011;5580;50.106;8.702;2022-07-06T06:31:59;8.77;;;4.90;;
11054;SDS011;5580;50.106;8.702;2022-07-06T06:34:24;9.50;;;5.03;;
11054;SDS011;5580;50.106;8.702;2022-07-06T06:36:50;7.53;;;4.67;;
11054;SDS011;5580;50.106;8.702;2022-07-06T06:39:16;6.17;;;4.60;;
11054;SDS011;5580;50.106;8.702;2022-07-06T06:41:41;5.93;;;4.30;;
11054;SDS011;5580;50.106;8.702;2022-07-06T06:44:07;8.60;;;4.87;;
11054;SDS011;5580;50.106;8.702;2022-07-06T06:46:33;8.67;;;4.93;;
11054;SDS011;5580;50.106;8.702;2022-07-06T06:48:58;9.97;;;4.90;;
11054;SDS011;5580;50.106;8.702;2022-07-06T06:51:24;9.70;;;4.77;;
11054;SDS011;5580;50.106;8.702;2022-07-06T06:53:50;6.50;;;4.63;;
11054;SDS011;5580;50.106;8.702;2022-07-06T06:56:15;9.10;;;4.87;;
11054;SDS011;5580;50.106;8.702;2022-07-06T06:58:42;7.33;;;4.87;;
11054;SDS011;5580;50.106;8.702;2022-07-06T07:01:07;9.00;;;4.90;;
11054;SDS011;5580;50.106;8.702;2022-07-06T07:03:33;9.40;;;5.30;;
11054;SDS011;5580;50.106;8.702;2022-07-06T07:05:59;9.53;;;5.20;;
11054;SDS011;5580;50.106;8.702;2022-07-06T07:08:25;11.00;;;5.57;;
11054;SDS011;5580;50.106;8.702;2022-07-06T07:10:50;10.57;;;5.70;;
11054;SDS011;5580;50.106;8.702;2022-07-06T07:13:16;8.30;;;5.10;;
11054;SDS011;5580;50.106;8.702;2022-07-06T07:15:42;12.13;;;5.80;;
11054;SDS011;5580;50.106;8.702;2022-07-06T07:18:08;8.33;;;5.50;;
11054;SDS011;5580;50.106;8.702;2022-07-06T07:20:34;9.83;;;5.20;;
11054;SDS011;5580;50.106;8.702;2022-07-06T07:23:00;9.53;;;5.50;;
11054;SDS011;5580;50.106;8.702;2022-07-06T07:25:26;10.30;;;5.70;;
11054;SDS011;5580;50.106;8.702;2022-07-06T07:27:52;11.00;;;5.57;;
11054;SDS011;5580;50.106;8.702;2022-07-06T07:30:18;9.60;;;5.47;;
11054;SDS011;5580;50.106;8.702;2022-07-06T07:32:44;9.33;;;5.20;;
11054;SDS011;5580;50.106;8.702;2022-07-06T07:35:10;8.50;;;5.17;;
11054;SDS011;5580;50.106;8.702;2022-07-06T07:37:35;7.83;;;5.00;;
11054;SDS011;5580;50.106;8.702;2022-07-06T07:40:01;8.47;;;5.50;;
11054;SDS011;5580;50.106;8.702;2022-07-06T07:42:27;7.13;;;5.20;;
11054;SDS011;5580;50.106;8.702;2022-07-06T07:44:53;9.67;;;5.30;;
11054;SDS011;5580;50.106;8.702;2022-07-06T07:47:19;9.27;;;5.00;;
11054;SDS011;5580;50.106;8.702;2022-07-06T07:49:44;9.20;;;4.67;;
11054;SDS011;5580;50.106;8.702;2022-07-06T07:52:10;8.90;;;4.80;;
11054;SDS011;5580;50.106;8.702;2022-07-06T07:54:36;7.87;;;4.60;;
11054;SDS011;5580;50.106;8.702;2022-07-06T07:57:02;8.60;;;4.90;;
11054;SDS011;5580;50.106;8.702;2022-07-06T07:59:28;7.93;;;4.80;;
11054;SDS011;5580;50.106;8.702;2022-07-06T08:01:53;6.63;;;4.47;;
11054;SDS011;5580;50.106;8.702;2022-07-06T08:04:19;8.43;;;4.70;;
11054;SDS011;5580;50.106;8.702;2022-07-06T08:06:45;8.10;;;4.60;;
11054;SDS011;5580;50.106;8.702;2022-07-06T08:09:11;9.30;;;4.50;;
11054;SDS011;5580;50.106;8.702;2022-07-06T08:11:37;7.73;;;4.20;;
11054;SDS011;5580;50.106;8.702;2022-07-06T08:14:03;5.20;;;4.40;;
11054;SDS011;5580;50.106;8.702;2022-07-06T08:16:29;7.60;;;4.50;;
11054;SDS011;5580;50.106;8.702;2022-07-06T08:18:54;7.60;;;4.80;;
11054;SDS011;5580;50.106;8.702;2022-07-06T08:21:20;7.67;;;4.60;;
11054;SDS011;5580;50.106;8.702;2022-07-06T08:23:46;8.20;;;5.03;;
11054;SDS011;5580;50.106;8.702;2022-07-06T08:26:11;8.03;;;4.60;;
11054;SDS011;5580;50.106;8.702;2022-07-06T08:28:37;7.67;;;4.80;;
11054;SDS011;5580;50.106;8.702;2022-07-06T08:31:02;6.77;;;4.70;;
11054;SDS011;5580;50.106;8.702;2022-07-06T08:33:28;8.57;;;5.17;;
11054;SDS011;5580;50.106;8.702;2022-07-06T08:35:55;9.17;;;5.00;;
11054;SDS011;5580;50.106;8.702;2022-07-06T08:38:20;7.80;;;5.20;;
11054;SDS011;5580;50.106;8.702;2022-07-06T08:40:47;9.93;;;5.00;;
11054;SDS011;5580;50.106;8.702;2022-07-06T08:43:14;6.33;;;4.60;;
11054;SDS011;5580;50.106;8.702;2022-07-06T08:45:41;8.43;;;5.20;;
11054;SDS011;5580;50.106;8.702;2022-07-06T08:48:10;7.50;;;5.20;;
11054;SDS011;5580;50.106;8.702;2022-07-06T08:50:37;10.83;;;5.07;;
11054;SDS011;5580;50.106;8.702;2022-07-06T08:53:03;10.00;;;5.07;;
11054;SDS011;5580;50.106;8.702;2022-07-06T08:55:30;9.43;;;5.27;;
11054;SDS011;5580;50.106;8.702;2022-07-06T08:57:56;7.33;;;5.40;;
11054;SDS011;5580;50.106;8.702;2022-07-06T09:00:23;10.57;;;5.50;;
11054;SDS011;5580;50.106;8.702;2022-07-06T09:02:50;8.60;;;5.30;;
11054;SDS011;5580;50.106;8.702;2022-07-06T09:05:16;8.73;;;5.47;;
11054;SDS011;5580;50.106;8.702;2022-07-06T09:07:42;7.40;;;4.83;;
11054;SDS011;5580;50.106;8.702;2022-07-06T09:10:12;9.87;;;4.90;;
11054;SDS011;5580;50.106;8.702;2022-07-06T09:12:38;11.27;;;5.53;;
11054;SDS011;5580;50.106;8.702;2022-07-06T09:15:04;11.43;;;5.97;;
11054;SDS011;5580;50.106;8.702;2022-07-06T09:17:30;8.07;;;5.40;;
11054;SDS011;5580;50.106;8.702;2022-07-06T09:19:56;9.03;;;5.97;;
11054;SDS011;5580;50.106;8.702;2022-07-06T09:22:26;10.70;;;5.63;;
11054;SDS011;5580;50.106;8.702;2022-07-06T09:25:10;10.17;;;5.63;;
11054;SDS011;5580;50.106;8.702;2022-07-06T09:27:41;11.00;;;5.67;;
11054;SDS011;5580;50.106;8.702;2022-07-06T09:30:09;10.33;;;5.57;;
11054;SDS011;5580;50.106;8.702;2022-07-06T09:32:39;11.60;;;5.43;;
11054;SDS011;5580;50.106;8.702;2022-07-06T09:35:08;11.67;;;5.47;;
11054;SDS011;5580;50.106;8.702;2022-07-06T09:37:45;11.30;;;5.53;;
11054;SDS011;5580;50.106;8.702;2022-07-06T09:40:19;9.20;;;5.83;;
11054;SDS011;5580;50.106;8.702;2022-07-06T09:42:45;9.30;;;5.27;;
11054;SDS011;5580;50.106;8.702;2022-07-06T09:45:10;11.93;;;5.50;;
11054;SDS011;5580;50.106;8.702;2022-07-06T09:47:36;13.03;;;6.27;;
11054;SDS011;5580;50.106;8.702;2022-07-06T09:50:04;10.50;;;5.20;;
11054;SDS011;5580;50.106;8.702;2022-07-06T09:52:33;9.87;;;4.93;;
11054;SDS011;5580;50.106;8.702;2022-07-06T09:55:00;7.53;;;5.10;;
11054;SDS011;5580;50.106;8.702;2022-07-06T09:57:25;9.87;;;5.80;;
11054;SDS011;5580;50.106;8.702;2022-07-06T09:59:51;8.43;;;5.57;;
11054;SDS011;5580;50.106;8.702;2022-07-06T10:02:17;8.73;;;5.37;;
11054;SDS011;5580;50.106;8.702;2022-07-06T10:04:45;9.27;;;5.57;;
11054;SDS011;5580;50.106;8.702;2022-07-06T10:07:12;9.73;;;5.40;;
11054;SDS011;5580;50.106;8.702;2022-07-06T10:09:39;10.87;;;5.20;;
11054;SDS011;5580;50.106;8.702;2022-07-06T10:12:06;11.93;;;5.07;;
11054;SDS011;5580;50.106;8.702;2022-07-06T10:14:37;7.90;;;5.13;;
11054;SDS011;5580;50.106;8.702;2022-07-06T10:17:03;8.57;;;4.93;;
11054;SDS011;5580;50.106;8.702;2022-07-06T10:19:30;7.70;;;5.00;;
11054;SDS011;5580;50.106;8.702;2022-07-06T10:22:00;8.13;;;4.80;;
11054;SDS011;5580;50.106;8.702;2022-07-06T10:24:28;6.93;;;4.80;;
11054;SDS011;5580;50.106;8.702;2022-07-06T10:26:54;7.83;;;5.10;;
11054;SDS011;5580;50.106;8.702;2022-07-06T10:29:21;10.93;;;5.20;;
11054;SDS011;5580;50.106;8.702;2022-07-06T10:31:47;7.67;;;4.80;;
11054;SDS011;5580;50.106;8.702;2022-07-06T10:34:14;7.67;;;5.27;;
11054;SDS011;5580;50.106;8.702;2022-07-06T10:36:43;11.93;;;5.30;;
11054;SDS011;5580;50.106;8.702;2022-07-06T10:39:10;13.53;;;5.80;;
11054;SDS011;5580;50.106;8.702;2022-07-06T10:41:55;8.87;;;5.30;;
11054;SDS011;5580;50.106;8.702;2022-07-06T10:44:25;10.00;;;5.30;;
11054;SDS011;5580;50.106;8.702;2022-07-06T10:49:18;7.07;;;4.70;;
11054;SDS011;5580;50.106;8.702;2022-07-06T10:51:44;7.80;;;4.70;;
11054;SDS011;5580;50.106;8.702;2022-07-06T10:54:09;7.10;;;4.40;;
11054;SDS011;5580;50.106;8.702;2022-07-06T10:59:11;9.60;;;5.07;;
11054;SDS011;5580;50.106;8.702;2022-07-06T11:01:37;8.47;;;5.00;;
11054;SDS011;5580;50.106;8.702;2022-07-06T11:06:33;8.33;;;4.87;;
11054;SDS011;5580;50.106;8.702;2022-07-06T11:14:06;7.50;;;4.67;;
11054;SDS011;5580;50.106;8.702;2022-07-06T11:19:19;6.43;;;5.13;;
11054;SDS011;5580;50.106;8.702;2022-07-06T11:24:18;9.03;;;5.17;;
11054;SDS011;5580;50.106;8.702;2022-07-06T11:26:46;6.73;;;4.70;;
11054;SDS011;5580;50.106;8.702;2022-07-06T11:29:13;6.07;;;4.40;;
11054;SDS011;5580;50.106;8.702;2022-07-06T11:31:40;7.30;;;4.63;;
11054;SDS011;5580;50.106;8.702;2022-07-06T11:34:08;7.40;;;4.60;;
11054;SDS011;5580;50.106;8.702;2022-07-06T11:36:35;5.97;;;4.53;;
11054;SDS011;5580;50.106;8.702;2022-07-06T11:39:01;6.73;;;4.60;;
11054;SDS011;5580;50.106;8.702;2022-07-06T11:41:27;5.87;;;4.40;;
11054;SDS011;5580;50.106;8.702;2022-07-06T11:43:53;8.90;;;4.83;;
11054;SDS011;5580;50.106;8.702;2022-07-06T11:48:51;6.70;;;4.40;;
11054;SDS011;5580;50.106;8.702;2022-07-06T11:51:18;6.03;;;4.20;;
11054;SDS011;5580;50.106;8.702;2022-07-06T11:53:54;6.40;;;4.30;;
11054;SDS011;5580;50.106;8.702;2022-07-06T11:56:25;7.20;;;4.40;;
11054;SDS011;5580;50.106;8.702;2022-07-06T11:58:57;8.37;;;4.37;;
11054;SDS011;5580;50.106;8.702;2022-07-06T12:01:24;5.53;;;4.40;;
11054;SDS011;5580;50.106;8.702;2022-07-06T12:03:51;5.00;;;4.50;;
11054;SDS011;5580;50.106;8.702;2022-07-06T12:06:21;7.53;;;4.73;;
11054;SDS011;5580;50.106;8.702;2022-07-06T12:08:49;4.83;;;4.20;;
11054;SDS011;5580;50.106;8.702;2022-07-06T12:11:23;4.73;;;4.17;;
11054;SDS011;5580;50.106;8.702;2022-07-06T12:13:50;9.23;;;6.33;;
11054;SDS011;5580;50.106;8.702;2022-07-06T12:16:18;5.80;;;4.27;;
11054;SDS011;5580;50.106;8.702;2022-07-06T12:18:45;5.10;;;4.00;;
11054;SDS011;5580;50.106;8.702;2022-07-06T12:21:17;5.43;;;4.07;;
11054;SDS011;5580;50.106;8.702;2022-07-06T12:23:46;7.57;;;4.30;;
11054;SDS011;5580;50.106;8.702;2022-07-06T12:26:15;5.33;;;4.10;;
11054;SDS011;5580;50.106;8.702;2022-07-06T12:28:42;6.23;;;4.20;;
11054;SDS011;5580;50.106;8.702;2022-07-06T12:31:08;6.07;;;4.20;;
11054;SDS011;5580;50.106;8.702;2022-07-06T12:33:35;7.23;;;3.80;;
11054;SDS011;5580;50.106;8.702;2022-07-06T12:36:10;4.90;;;3.57;;
11054;SDS011;5580;50.106;8.702;2022-07-06T12:38:43;5.87;;;3.70;;
11054;SDS011;5580;50.106;8.702;2022-07-06T12:41:10;5.10;;;3.70;;
11054;SDS011;5580;50.106;8.702;2022-07-06T12:48:57;4.83;;;3.57;;
11054;SDS011;5580;50.106;8.702;2022-07-06T12:51:24;4.40;;;3.60;;
11054;SDS011;5580;50.106;8.702;2022-07-06T12:53:50;5.77;;;3.80;;
11054;SDS011;5580;50.106;8.702;2022-07-06T12:56:16;8.53;;;3.87;;
11054;SDS011;5580;50.106;8.702;2022-07-06T12:59:01;4.07;;;3.37;;
11054;SDS011;5580;50.106;8.702;2022-07-06T13:01:26;7.97;;;3.60;;
11054;SDS011;5580;50.106;8.702;2022-07-06T13:03:56;4.83;;;3.80;;
11054;SDS011;5580;50.106;8.702;2022-07-06T13:06:29;3.97;;;3.50;;
11054;SDS011;5580;50.106;8.702;2022-07-06T13:08:58;4.33;;;3.67;;
11054;SDS011;5580;50.106;8.702;2022-07-06T13:11:24;5.00;;;3.40;;
11054;SDS011;5580;50.106;8.702;2022-07-06T13:13:50;5.67;;;3.60;;
11054;SDS011;5580;50.106;8.702;2022-07-06T13:16:15;4.93;;;3.37;;
11054;SDS011;5580;50.106;8.702;2022-07-06T13:18:41;3.63;;;3.03;;
11054;SDS011;5580;50.106;8.702;2022-07-06T13:21:07;3.97;;;3.27;;
11054;SDS011;5580;50.106;8.702;2022-07-06T13:23:32;5.90;;;3.37;;
11054;SDS011;5580;50.106;8.702;2022-07-06T13:25:58;4.53;;;3.23;;
11054;SDS011;5580;50.106;8.702;2022-07-06T13:28:24;3.30;;;3.00;;
11054;SDS011;5580;50.106;8.702;2022-07-06T13:30:49;5.53;;;3.23;;
11054;SDS011;5580;50.106;8.702;2022-07-06T13:33:15;5.20;;;3.30;;
11054;SDS011;5580;50.106;8.702;2022-07-06T13:35:40;3.40;;;3.10;;
11054;SDS011;5580;50.106;8.702;2022-07-06T13:38:06;9.77;;;3.60;;
11054;SDS011;5580;50.106;8.702;2022-07-06T13:40:32;6.37;;;3.17;;
11054;SDS011;5580;50.106;8.702;2022-07-06T13:42:59;3.40;;;3.10;;
11054;SDS011;5580;50.106;8.702;2022-07-06T13:45:25;5.60;;;3.30;;
11054;SDS011;5580;50.106;8.702;2022-07-06T13:47:51;4.63;;;3.30;;
11054;SDS011;5580;50.106;8.702;2022-07-06T13:50:16;5.67;;;3.30;;
11054;SDS011;5580;50.106;8.702;2022-07-06T13:52:42;5.63;;;3.37;;
11054;SDS011;5580;50.106;8.702;2022-07-06T13:55:08;4.60;;;3.40;;
11054;SDS011;5580;50.106;8.702;2022-07-06T13:57:34;5.43;;;3.00;;
11054;SDS011;5580;50.106;8.702;2022-07-06T14:00:00;5.70;;;3.60;;
11054;SDS011;5580;50.106;8.702;2022-07-06T14:02:26;3.43;;;3.13;;
11054;SDS011;5580;50.106;8.702;2022-07-06T14:04:52;4.23;;;3.20;;
11054;SDS011;5580;50.106;8.702;2022-07-06T14:07:17;5.07;;;3.40;;
11054;SDS011;5580;50.106;8.702;2022-07-06T14:09:43;5.00;;;3.70;;
11054;SDS011;5580;50.106;8.702;2022-07-06T14:12:08;4.40;;;3.43;;
11054;SDS011;5580;50.106;8.702;2022-07-06T14:14:34;7.67;;;3.80;;
11054;SDS011;5580;50.106;8.702;2022-07-06T14:17:00;5.10;;;3.60;;
11054;SDS011;5580;50.106;8.702;2022-07-06T14:19:25;6.33;;;3.50;;
11054;SDS011;5580;50.106;8.702;2022-07-06T14:21:51;4.87;;;3.87;;
11054;SDS011;5580;50.106;8.702;2022-07-06T14:24:16;5.60;;;3.73;;
11054;SDS011;5580;50.106;8.702;2022-07-06T14:26:42;7.73;;;3.80;;
11054;SDS011;5580;50.106;8.702;2022-07-06T14:29:08;4.87;;;3.97;;
11054;SDS011;5580;50.106;8.702;2022-07-06T14:31:34;7.03;;;4.00;;
11054;SDS011;5580;50.106;8.702;2022-07-06T14:33:59;8.30;;;4.07;;
11054;SDS011;5580;50.106;8.702;2022-07-06T14:36:25;4.67;;;3.90;;
11054;SDS011;5580;50.106;8.702;2022-07-06T14:38:51;5.03;;;3.70;;
11054;SDS011;5580;50.106;8.702;2022-07-06T14:41:16;6.53;;;3.90;;
11054;SDS011;5580;50.106;8.702;2022-07-06T14:43:42;7.80;;;4.37;;
11054;SDS011;5580;50.106;8.702;2022-07-06T14:46:08;6.97;;;3.80;;
11054;SDS011;5580;50.106;8.702;2022-07-06T14:48:33;8.33;;;3.93;;
11054;SDS011;5580;50.106;8.702;2022-07-06T14:50:59;5.37;;;4.07;;
11054;SDS011;5580;50.106;8.702;2022-07-06T14:53:25;5.47;;;3.97;;
11054;SDS011;5580;50.106;8.702;2022-07-06T14:55:50;7.43;;;4.00;;
11054;SDS011;5580;50.106;8.702;2022-07-06T14:58:16;6.37;;;4.20;;
11054;SDS011;5580;50.106;8.702;2022-07-06T15:00:43;6.57;;;3.77;;
11054;SDS011;5580;50.106;8.702;2022-07-06T15:03:10;8.80;;;4.20;;
11054;SDS011;5580;50.106;8.702;2022-07-06T15:05:36;8.17;;;4.37;;
11054;SDS011;5580;50.106;8.702;2022-07-06T15:08:02;4.97;;;3.90;;
11054;SDS011;5580;50.106;8.702;2022-07-06T15:10:29;6.17;;;4.00;;
11054;SDS011;5580;50.106;8.702;2022-07-06T15:12:55;6.10;;;3.97;;
11054;SDS011;5580;50.106;8.702;2022-07-06T15:15:21;5.77;;;4.27;;
11054;SDS011;5580;50.106;8.702;2022-07-06T15:17:46;9.20;;;4.40;;
11054;SDS011;5580;50.106;8.702;2022-07-06T15:20:12;10.40;;;4.40;;
11054;SDS011;5580;50.106;8.702;2022-07-06T15:22:37;4.40;;;3.90;;